createdAt,value
2022-08-17T00:00:42.900Z,98.99
2022-08-17T00:01:20.618Z,99.19
2022-08-17T00:02:26.059Z,99.19
2022-08-17T00:03:20.519Z,99.19
2022-08-17T00:04:19.623Z,99.10
2022-08-17T00:05:19.479Z,99.10
2022-08-17T00:06:19.468Z,98.99
2022-08-17T00:07:19.481Z,98.90
2022-08-17T00:08:19.433Z,98.69
2022-08-17T00:09:22.449Z,98.59
2022-08-17T00:10:22.429Z,98.59
2022-08-17T00:11:19.394Z,98.59
2022-08-17T00:12:40.799Z,98.49
2022-08-17T00:13:20.383Z,98.29
2022-08-17T00:14:19.374Z,97.89
2022-08-17T00:15:19.336Z,97.49
2022-08-17T00:16:19.324Z,97.08
2022-08-17T00:17:19.319Z,96.88
2022-08-17T00:18:58.207Z,96.78
2022-08-17T00:19:20.285Z,96.48
2022-08-17T00:20:19.304Z,96.52
2022-08-17T00:21:23.849Z,96.58
2022-08-17T00:22:31.938Z,96.68
2022-08-17T00:23:20.238Z,96.52
2022-08-17T00:24:19.231Z,96.52
2022-08-17T00:25:19.221Z,96.92
2022-08-17T00:26:44.341Z,97.23
2022-08-17T00:27:20.179Z,97.03
2022-08-17T00:28:19.239Z,96.42
2022-08-17T00:29:22.160Z,96.01
2022-08-17T00:30:22.152Z,95.81
2022-08-17T00:31:19.120Z,95.72
2022-08-17T00:33:14.033Z,95.72
2022-08-17T00:33:20.122Z,95.81
2022-08-17T00:34:19.090Z,95.92
2022-08-17T00:35:19.075Z,95.96
2022-08-17T00:36:19.094Z,96.26
2022-08-17T00:37:19.047Z,96.77
2022-08-17T00:38:19.087Z,97.17
2022-08-17T00:39:19.036Z,97.47
2022-08-17T00:40:19.007Z,97.58
2022-08-17T00:41:18.987Z,97.98
2022-08-17T00:42:19.000Z,98.48
2022-08-17T00:43:19.007Z,98.73
2022-08-17T00:44:18.946Z,98.83
2022-08-17T00:45:18.937Z,99.04
2022-08-17T00:46:18.948Z,99.24
2022-08-17T00:47:18.907Z,99.44
2022-08-17T00:48:29.159Z,99.84
2022-08-17T00:49:22.938Z,99.99
2022-08-17T00:50:21.910Z,99.99
2022-08-17T00:51:18.862Z,99.99
2022-08-17T00:52:18.839Z,99.99
2022-08-17T00:53:18.838Z,99.99
2022-08-17T00:54:18.843Z,99.99
2022-08-17T00:55:18.822Z,99.99
2022-08-17T00:56:18.797Z,99.99
2022-08-17T00:57:18.778Z,99.74
2022-08-17T00:58:18.754Z,99.54
2022-08-17T00:59:19.744Z,99.54
2022-08-17T01:00:18.772Z,99.74
2022-08-17T01:01:21.607Z,99.99
2022-08-17T01:02:18.704Z,99.99
2022-08-17T01:03:18.693Z,99.99
2022-08-17T01:04:18.686Z,99.99
2022-08-17T01:05:18.935Z,99.99
2022-08-17T01:06:18.651Z,99.99
2022-08-17T01:07:18.674Z,99.99
2022-08-17T01:08:18.627Z,99.99
2022-08-17T01:09:21.618Z,99.99
2022-08-17T01:10:59.359Z,99.99
2022-08-17T01:11:19.585Z,99.84
2022-08-17T01:12:18.566Z,99.68
2022-08-17T01:13:18.557Z,99.58
2022-08-17T01:14:18.538Z,99.28
2022-08-17T01:15:18.538Z,99.18
2022-08-17T01:16:18.570Z,99.08
2022-08-17T01:17:18.535Z,98.98
2022-08-17T01:18:18.512Z,98.98
2022-08-17T01:19:18.470Z,98.88
2022-08-17T01:20:18.461Z,98.78
2022-08-17T01:21:18.483Z,98.68
2022-08-17T01:22:18.462Z,98.68
2022-08-17T01:23:20.614Z,98.58
2022-08-17T01:24:18.402Z,98.37
2022-08-17T01:25:18.401Z,98.17
2022-08-17T01:26:18.393Z,98.07
2022-08-17T01:27:18.630Z,98.07
2022-08-17T01:28:33.330Z,98.17
2022-08-17T01:29:22.343Z,98.27
2022-08-17T01:30:56.510Z,98.37
2022-08-17T01:31:19.307Z,98.47
2022-08-17T01:32:18.295Z,98.58
2022-08-17T01:33:18.327Z,98.82
2022-08-17T01:34:18.275Z,98.93
2022-08-17T01:35:18.248Z,98.93
2022-08-17T01:36:18.236Z,98.93
2022-08-17T01:37:18.218Z,98.82
2022-08-17T01:38:18.220Z,98.72
2022-08-17T01:39:19.231Z,98.82
2022-08-17T01:40:18.180Z,98.93
2022-08-17T01:41:18.170Z,99.02
2022-08-17T01:42:18.202Z,99.13
2022-08-17T01:43:18.143Z,99.22
2022-08-17T01:44:18.140Z,99.13
2022-08-17T01:45:18.159Z,99.02
2022-08-17T01:46:18.093Z,98.93
2022-08-17T01:47:18.084Z,98.93
2022-08-17T01:48:18.093Z,99.13
2022-08-17T01:49:21.062Z,99.33
2022-08-17T01:50:21.105Z,99.43
2022-08-17T01:51:18.026Z,99.43
2022-08-17T01:52:18.022Z,99.43
2022-08-17T01:53:17.996Z,99.63
2022-08-17T01:54:17.989Z,99.84
2022-08-17T01:55:17.973Z,99.99
2022-08-17T01:56:17.981Z,99.99
2022-08-17T01:57:17.953Z,99.99
2022-08-17T01:58:17.926Z,99.84
2022-08-17T01:59:17.908Z,99.63
2022-08-17T02:00:17.898Z,99.53
2022-08-17T02:01:18.008Z,99.43
2022-08-17T02:02:30.513Z,99.43
2022-08-17T02:03:18.854Z,99.63
2022-08-17T02:04:17.839Z,99.73
2022-08-17T02:05:17.828Z,99.84
2022-08-17T02:06:27.203Z,99.99
2022-08-17T02:07:18.834Z,99.99
2022-08-17T02:08:18.783Z,99.99
2022-08-17T02:09:23.223Z,99.99
2022-08-17T02:10:20.835Z,99.99
2022-08-17T02:11:17.734Z,99.99
2022-08-17T02:12:38.557Z,99.99
2022-08-17T02:13:18.705Z,99.99
2022-08-17T02:14:17.703Z,99.99
2022-08-17T02:15:18.659Z,99.99
2022-08-17T02:16:17.746Z,99.99
2022-08-17T02:17:17.659Z,99.99
2022-08-17T02:18:17.645Z,99.99
2022-08-17T02:19:17.639Z,99.99
2022-08-17T02:20:18.384Z,99.99
2022-08-17T02:21:18.654Z,99.99
2022-08-17T02:22:17.587Z,99.99
2022-08-17T02:23:17.598Z,99.98
2022-08-17T02:24:17.548Z,99.88
2022-08-17T02:25:20.523Z,99.68
2022-08-17T02:26:24.069Z,99.48
2022-08-17T02:27:18.532Z,99.38
2022-08-17T02:28:17.528Z,99.38
2022-08-17T02:29:20.481Z,99.38
2022-08-17T02:30:59.264Z,99.38
2022-08-17T02:31:18.470Z,99.48
2022-08-17T02:32:25.424Z,99.38
2022-08-17T02:33:18.462Z,99.07
2022-08-17T02:34:17.417Z,98.87
2022-08-17T02:35:19.398Z,98.87
2022-08-17T02:36:17.398Z,98.67
2022-08-17T02:37:17.404Z,98.47
2022-08-17T02:38:17.354Z,98.27
2022-08-17T02:39:17.343Z,98.21
2022-08-17T02:40:18.095Z,98.41
2022-08-17T02:41:18.327Z,98.67
2022-08-17T02:42:17.334Z,98.97
2022-08-17T02:43:17.318Z,99.18
2022-08-17T02:44:39.233Z,99.32
2022-08-17T02:45:19.030Z,99.42
2022-08-17T02:46:17.261Z,99.62
2022-08-17T02:47:17.286Z,99.78
2022-08-17T02:48:17.220Z,99.93
2022-08-17T02:49:21.206Z,99.93
2022-08-17T02:50:20.970Z,99.62
2022-08-17T02:51:17.212Z,99.73
2022-08-17T02:52:17.171Z,99.83
2022-08-17T02:53:18.210Z,99.83
2022-08-17T02:54:39.405Z,99.93
2022-08-17T02:55:19.593Z,99.93
2022-08-17T02:56:17.113Z,99.99
2022-08-17T02:57:17.102Z,99.99
2022-08-17T02:58:17.073Z,99.99
2022-08-17T02:59:18.096Z,99.99
2022-08-17T03:00:19.024Z,99.99
2022-08-17T03:01:17.098Z,99.99
2022-08-17T03:02:17.034Z,99.99
2022-08-17T03:03:17.045Z,99.99
2022-08-17T03:04:17.015Z,99.99
2022-08-17T03:05:17.003Z,99.99
2022-08-17T03:06:16.964Z,99.99
2022-08-17T03:07:16.967Z,99.99
2022-08-17T03:08:16.952Z,99.99
2022-08-17T03:09:19.949Z,99.99
2022-08-17T03:10:20.687Z,99.99
2022-08-17T03:11:16.938Z,99.99
2022-08-17T03:12:16.882Z,99.99
2022-08-17T03:13:16.875Z,99.99
2022-08-17T03:14:16.880Z,99.99
2022-08-17T03:15:18.803Z,99.99
2022-08-17T03:16:16.926Z,99.99
2022-08-17T03:17:17.322Z,99.99
2022-08-17T03:18:19.083Z,99.99
2022-08-17T03:19:17.791Z,99.99
2022-08-17T03:20:16.763Z,99.99
2022-08-17T03:21:16.782Z,99.99
2022-08-17T03:22:37.407Z,99.99
2022-08-17T03:23:17.733Z,99.99
2022-08-17T03:24:16.710Z,99.99
2022-08-17T03:25:16.716Z,99.99
2022-08-17T03:26:16.724Z,99.99
2022-08-17T03:27:16.667Z,99.99
2022-08-17T03:28:16.654Z,99.99
2022-08-17T03:29:19.636Z,99.99
2022-08-17T03:30:21.216Z,99.99
2022-08-17T03:31:16.617Z,99.99
2022-08-17T03:32:16.628Z,99.99
2022-08-17T03:33:16.593Z,99.99
2022-08-17T03:34:16.573Z,99.99
2022-08-17T03:35:16.555Z,99.99
2022-08-17T03:36:16.542Z,99.99
2022-08-17T03:37:16.590Z,99.99
2022-08-17T03:38:16.509Z,99.99
2022-08-17T03:39:16.500Z,99.99
2022-08-17T03:40:16.480Z,99.99
2022-08-17T03:41:17.483Z,99.99
2022-08-17T03:42:31.585Z,99.99
2022-08-17T03:43:17.461Z,99.99
2022-08-17T03:44:16.431Z,99.99
2022-08-17T03:45:16.423Z,99.99
2022-08-17T03:46:28.582Z,99.99
2022-08-17T03:47:17.412Z,99.99
2022-08-17T03:48:16.364Z,99.99
2022-08-17T03:49:19.421Z,99.99
2022-08-17T03:50:19.358Z,99.99
2022-08-17T03:51:16.346Z,99.99
2022-08-17T03:52:16.319Z,99.99
2022-08-17T03:53:16.321Z,99.99
2022-08-17T03:54:16.302Z,99.99
2022-08-17T03:55:16.306Z,99.99
2022-08-17T03:56:16.268Z,99.99
2022-08-17T03:57:16.270Z,99.99
2022-08-17T03:58:16.233Z,99.99
2022-08-17T03:59:20.950Z,99.99
2022-08-17T04:00:17.262Z,99.99
2022-08-17T04:01:16.246Z,99.99
2022-08-17T04:02:16.187Z,99.99
2022-08-17T04:03:16.159Z,99.99
2022-08-17T04:04:16.139Z,99.99
2022-08-17T04:05:16.122Z,99.99
2022-08-17T04:06:16.189Z,99.99
2022-08-17T04:07:16.099Z,99.99
2022-08-17T04:08:16.082Z,99.99
2022-08-17T04:09:19.086Z,99.99
2022-08-17T04:10:19.838Z,99.99
2022-08-17T04:11:16.043Z,99.99
2022-08-17T04:12:16.051Z,99.99
2022-08-17T04:13:16.072Z,99.99
2022-08-17T04:14:16.996Z,99.99
2022-08-17T04:15:16.007Z,99.99
2022-08-17T04:16:15.968Z,99.99
2022-08-17T04:17:15.956Z,99.99
2022-08-17T04:18:15.944Z,99.99
2022-08-17T04:19:15.957Z,99.99
2022-08-17T04:20:15.928Z,99.99
2022-08-17T04:21:15.910Z,99.99
2022-08-17T04:22:32.680Z,99.99
2022-08-17T04:23:16.878Z,99.99
2022-08-17T04:24:15.882Z,99.99
2022-08-17T04:25:15.850Z,99.99
2022-08-17T04:26:53.885Z,99.99
2022-08-17T04:27:16.820Z,99.99
2022-08-17T04:28:16.444Z,99.99
2022-08-17T04:29:18.773Z,99.99
2022-08-17T04:30:18.942Z,99.99
2022-08-17T04:31:15.758Z,99.99
2022-08-17T04:32:15.732Z,99.99
2022-08-17T04:33:16.054Z,99.99
2022-08-17T04:34:15.704Z,99.99
2022-08-17T04:35:15.693Z,99.99
2022-08-17T04:36:15.704Z,99.99
2022-08-17T04:37:15.678Z,99.99
2022-08-17T04:38:15.665Z,99.99
2022-08-17T04:39:15.655Z,99.99
2022-08-17T04:40:15.692Z,99.99
2022-08-17T04:41:15.656Z,99.99
2022-08-17T04:42:15.618Z,99.99
2022-08-17T04:43:15.597Z,99.99
2022-08-17T04:44:15.582Z,99.99
2022-08-17T04:45:16.571Z,99.99
2022-08-17T04:46:15.589Z,99.99
2022-08-17T04:47:15.549Z,99.99
2022-08-17T04:48:15.528Z,99.99
2022-08-17T04:49:18.530Z,99.99
2022-08-17T04:50:18.513Z,99.99
2022-08-17T04:51:15.542Z,99.99
2022-08-17T04:52:32.299Z,99.99
2022-08-17T04:53:16.461Z,99.99
2022-08-17T04:54:15.442Z,99.99
2022-08-17T04:55:15.448Z,99.99
2022-08-17T04:56:16.888Z,99.99
2022-08-17T04:57:15.443Z,99.99
2022-08-17T04:58:15.384Z,99.99
2022-08-17T04:59:15.389Z,99.99
2022-08-17T05:00:15.363Z,99.99
2022-08-17T05:01:15.391Z,99.99
2022-08-17T05:02:15.335Z,99.99
2022-08-17T05:03:15.345Z,99.99
2022-08-17T05:04:33.066Z,99.99
2022-08-17T05:05:16.296Z,99.99
2022-08-17T05:06:15.278Z,99.99
2022-08-17T05:07:18.623Z,99.99
2022-08-17T05:08:16.249Z,99.99
2022-08-17T05:09:18.247Z,99.99
2022-08-17T05:10:18.248Z,99.99
2022-08-17T05:11:15.209Z,99.99
2022-08-17T05:12:15.200Z,99.99
2022-08-17T05:13:15.239Z,99.99
2022-08-17T05:14:15.169Z,99.99
2022-08-17T05:15:15.159Z,99.99
2022-08-17T05:16:15.141Z,99.99
2022-08-17T05:17:15.132Z,99.99
2022-08-17T05:18:15.112Z,99.99
2022-08-17T05:19:15.131Z,99.99
2022-08-17T05:20:15.094Z,99.99
2022-08-17T05:21:15.082Z,99.99
2022-08-17T05:22:15.055Z,99.99
2022-08-17T05:23:15.057Z,99.99
2022-08-17T05:24:17.654Z,99.99
2022-08-17T05:25:16.031Z,99.99
2022-08-17T05:26:20.402Z,99.99
2022-08-17T05:27:18.890Z,99.99
2022-08-17T05:28:14.987Z,99.99
2022-08-17T05:29:17.997Z,99.99
2022-08-17T05:30:17.986Z,99.99
2022-08-17T05:31:14.949Z,99.99
2022-08-17T05:32:38.224Z,99.99
2022-08-17T05:33:15.914Z,99.99
2022-08-17T05:34:14.900Z,99.99
2022-08-17T05:35:14.927Z,99.99
2022-08-17T05:36:42.517Z,99.99
2022-08-17T05:37:15.901Z,99.99
2022-08-17T05:38:14.842Z,99.99
2022-08-17T05:39:16.583Z,99.99
2022-08-17T05:40:14.821Z,99.99
2022-08-17T05:41:14.840Z,99.77
2022-08-17T05:42:14.791Z,97.11
2022-08-17T05:43:14.781Z,95.56
2022-08-17T05:44:14.777Z,93.41
2022-08-17T05:45:14.784Z,92.61
2022-08-17T05:46:14.773Z,92.01
2022-08-17T05:47:14.741Z,91.61
2022-08-17T05:48:14.704Z,90.96
2022-08-17T05:49:17.695Z,91.16
2022-08-17T05:50:18.352Z,91.06
2022-08-17T05:51:14.676Z,91.01
2022-08-17T05:52:14.683Z,91.41
2022-08-17T05:53:15.647Z,91.81
2022-08-17T05:54:14.630Z,92.55
2022-08-17T05:55:14.651Z,92.81
2022-08-17T05:56:22.685Z,91.66
2022-08-17T05:57:15.590Z,90.96
2022-08-17T05:58:14.579Z,90.77
2022-08-17T05:59:14.569Z,90.36
2022-08-17T06:00:14.554Z,90.56
2022-08-17T06:01:14.602Z,90.42
2022-08-17T06:02:14.582Z,89.58
2022-08-17T06:03:14.510Z,88.92
2022-08-17T06:04:14.534Z,89.22
2022-08-17T06:05:14.503Z,89.66
2022-08-17T06:06:14.467Z,90.26
2022-08-17T06:07:14.471Z,90.46
2022-08-17T06:08:14.483Z,90.66
2022-08-17T06:09:22.836Z,90.46
2022-08-17T06:10:18.442Z,90.56
2022-08-17T06:11:14.403Z,90.77
2022-08-17T06:12:19.729Z,90.91
2022-08-17T06:13:15.376Z,91.96
2022-08-17T06:14:14.366Z,92.15
2022-08-17T06:15:14.348Z,92.80
2022-08-17T06:16:32.899Z,93.95
2022-08-17T06:17:15.357Z,95.10
2022-08-17T06:18:18.902Z,96.10
2022-08-17T06:19:14.300Z,96.41
2022-08-17T06:20:14.287Z,96.60
2022-08-17T06:21:14.269Z,96.75
2022-08-17T06:22:14.280Z,96.80
2022-08-17T06:23:14.310Z,97.00
2022-08-17T06:24:14.229Z,97.16
2022-08-17T06:25:14.232Z,96.36
2022-08-17T06:26:14.197Z,96.36
2022-08-17T06:27:14.183Z,96.06
2022-08-17T06:28:14.220Z,95.75
2022-08-17T06:29:18.840Z,95.45
2022-08-17T06:30:17.161Z,95.75
2022-08-17T06:31:14.124Z,96.06
2022-08-17T06:32:14.145Z,96.06
2022-08-17T06:33:14.109Z,95.65
2022-08-17T06:34:14.105Z,95.65
2022-08-17T06:35:14.086Z,96.06
2022-08-17T06:36:15.855Z,95.95
2022-08-17T06:37:14.077Z,96.06
2022-08-17T06:38:17.333Z,95.95
2022-08-17T06:39:15.056Z,95.65
2022-08-17T06:40:14.080Z,95.65
2022-08-17T06:41:13.999Z,95.65
2022-08-17T06:42:54.687Z,95.65
2022-08-17T06:43:14.989Z,96.10
2022-08-17T06:44:43.300Z,96.60
2022-08-17T06:45:14.949Z,97.11
2022-08-17T06:46:13.932Z,97.31
2022-08-17T06:47:13.932Z,97.31
2022-08-17T06:48:13.903Z,97.06
2022-08-17T06:49:16.977Z,96.96
2022-08-17T06:50:16.923Z,96.66
2022-08-17T06:51:13.884Z,96.66
2022-08-17T06:52:46.163Z,96.36
2022-08-17T06:53:14.876Z,96.26
2022-08-17T06:54:13.881Z,96.56
2022-08-17T06:55:18.139Z,96.15
2022-08-17T06:56:14.425Z,96.15
2022-08-17T06:57:13.877Z,96.15
2022-08-17T06:58:15.813Z,96.15
2022-08-17T06:59:13.953Z,96.26
2022-08-17T07:00:13.896Z,96.36
2022-08-17T07:01:13.942Z,96.31
2022-08-17T07:02:13.849Z,96.11
2022-08-17T07:03:13.796Z,95.91
2022-08-17T07:04:13.767Z,95.81
2022-08-17T07:05:14.000Z,95.71
2022-08-17T07:06:13.931Z,95.66
2022-08-17T07:07:13.732Z,95.26
2022-08-17T07:08:13.720Z,95.61
2022-08-17T07:09:16.742Z,95.66
2022-08-17T07:10:16.731Z,95.86
2022-08-17T07:11:13.633Z,96.06
2022-08-17T07:12:13.594Z,95.97
2022-08-17T07:13:13.669Z,95.62
2022-08-17T07:14:17.145Z,95.26
2022-08-17T07:15:13.573Z,95.16
2022-08-17T07:16:13.614Z,95.16
2022-08-17T07:17:13.558Z,95.16
2022-08-17T07:18:13.556Z,95.26
2022-08-17T07:19:13.566Z,95.21
2022-08-17T07:20:13.485Z,95.12
2022-08-17T07:21:17.559Z,94.92
2022-08-17T07:22:13.497Z,94.71
2022-08-17T07:23:13.466Z,94.51
2022-08-17T07:24:28.123Z,94.57
2022-08-17T07:25:16.040Z,94.07
2022-08-17T07:26:13.515Z,93.52
2022-08-17T07:27:13.467Z,92.97
2022-08-17T07:28:13.369Z,92.97
2022-08-17T07:29:16.348Z,93.17
2022-08-17T07:30:16.371Z,93.02
2022-08-17T07:31:13.329Z,92.52
2022-08-17T07:32:13.343Z,92.12
2022-08-17T07:33:13.427Z,91.52
2022-08-17T07:34:13.282Z,91.58
2022-08-17T07:35:16.231Z,91.67
2022-08-17T07:36:13.282Z,91.38
2022-08-17T07:37:13.245Z,91.03
2022-08-17T07:38:25.890Z,90.94
2022-08-17T07:39:14.214Z,90.83
2022-08-17T07:40:15.147Z,90.33
2022-08-17T07:41:13.185Z,90.13
2022-08-17T07:42:13.175Z,89.99
2022-08-17T07:43:18.786Z,89.39
2022-08-17T07:44:14.148Z,89.39
2022-08-17T07:45:13.128Z,89.49
2022-08-17T07:46:13.130Z,88.99
2022-08-17T07:47:13.127Z,89.15
2022-08-17T07:48:15.773Z,89.25
2022-08-17T07:49:16.101Z,88.95
2022-08-17T07:50:16.090Z,89.39
2022-08-17T07:51:13.051Z,89.39
2022-08-17T07:52:24.255Z,89.45
2022-08-17T07:53:14.032Z,89.35
2022-08-17T07:54:14.941Z,88.75
2022-08-17T07:55:12.993Z,88.90
2022-08-17T07:56:12.995Z,88.71
2022-08-17T07:57:12.979Z,88.01
2022-08-17T07:58:12.957Z,87.87
2022-08-17T07:59:12.993Z,87.76
2022-08-17T08:00:12.926Z,86.97
2022-08-17T08:01:12.927Z,86.47
2022-08-17T08:02:12.989Z,86.33
2022-08-17T08:03:12.897Z,85.87
2022-08-17T08:04:16.356Z,86.17
2022-08-17T08:05:13.886Z,86.07
2022-08-17T08:06:13.860Z,86.57
2022-08-17T08:07:12.835Z,86.43
2022-08-17T08:08:12.819Z,86.03
2022-08-17T08:09:15.820Z,86.03
2022-08-17T08:10:15.840Z,85.78
2022-08-17T08:11:12.780Z,85.49
2022-08-17T08:12:12.771Z,85.39
2022-08-17T08:13:14.262Z,84.99
2022-08-17T08:14:12.754Z,84.99
2022-08-17T08:15:12.792Z,84.39
2022-08-17T08:16:12.743Z,84.59
2022-08-17T08:17:12.714Z,84.39
2022-08-17T08:18:12.709Z,83.85
2022-08-17T08:19:12.685Z,83.35
2022-08-17T08:20:34.931Z,83.45
2022-08-17T08:21:13.696Z,83.01
2022-08-17T08:22:12.646Z,83.11
2022-08-17T08:23:12.626Z,82.02
2022-08-17T08:24:12.607Z,82.21
2022-08-17T08:25:12.606Z,81.58
2022-08-17T08:26:16.519Z,81.44
2022-08-17T08:27:13.569Z,80.94
2022-08-17T08:28:12.573Z,80.74
2022-08-17T08:29:15.569Z,80.65
2022-08-17T08:30:23.124Z,81.01
2022-08-17T08:31:12.598Z,81.10
2022-08-17T08:32:12.513Z,80.47
2022-08-17T08:33:12.509Z,80.47
2022-08-17T08:34:53.494Z,79.24
2022-08-17T08:35:13.506Z,79.53
2022-08-17T08:36:12.458Z,79.63
2022-08-17T08:37:16.352Z,79.10
2022-08-17T08:38:13.447Z,78.00
2022-08-17T08:39:12.417Z,77.57
2022-08-17T08:40:12.612Z,77.57
2022-08-17T08:41:12.387Z,77.14
2022-08-17T08:42:12.397Z,75.74
2022-08-17T08:43:12.371Z,75.29
2022-08-17T08:44:12.341Z,76.78
2022-08-17T08:45:12.330Z,76.48
2022-08-17T08:46:12.370Z,76.48
2022-08-17T08:47:12.301Z,75.98
2022-08-17T08:48:12.794Z,75.68
2022-08-17T08:49:16.271Z,76.44
2022-08-17T08:50:37.808Z,75.25
2022-08-17T08:51:13.273Z,75.15
2022-08-17T08:52:12.234Z,74.76
2022-08-17T08:53:12.213Z,74.76
2022-08-17T08:54:12.206Z,74.35
2022-08-17T08:55:12.206Z,73.82
2022-08-17T08:56:12.229Z,73.19
2022-08-17T08:57:24.225Z,72.30
2022-08-17T08:58:32.037Z,72.83
2022-08-17T08:59:13.128Z,73.13
2022-08-17T09:00:12.128Z,72.93
2022-08-17T09:01:16.945Z,73.82
2022-08-17T09:02:13.142Z,73.79
2022-08-17T09:03:12.076Z,73.29
2022-08-17T09:04:24.264Z,72.86
2022-08-17T09:05:14.802Z,72.27
2022-08-17T09:06:32.251Z,72.66
2022-08-17T09:07:13.023Z,72.07
2022-08-17T09:08:12.045Z,72.36
2022-08-17T09:09:15.024Z,72.56
2022-08-17T09:10:15.002Z,72.27
2022-08-17T09:11:12.025Z,72.07
2022-08-17T09:12:11.971Z,72.17
2022-08-17T09:13:11.976Z,71.97
2022-08-17T09:14:21.508Z,72.60
2022-08-17T09:15:13.232Z,72.66
2022-08-17T09:16:11.911Z,72.36
2022-08-17T09:17:11.938Z,72.27
2022-08-17T09:19:02.914Z,72.56
2022-08-17T09:19:13.182Z,72.53
2022-08-17T09:20:11.852Z,72.43
2022-08-17T09:21:12.840Z,71.41
2022-08-17T09:22:11.831Z,71.80
2022-08-17T09:23:11.872Z,70.78
2022-08-17T09:24:11.801Z,69.89
2022-08-17T09:25:11.783Z,69.49
2022-08-17T09:26:11.800Z,69.49
2022-08-17T09:27:11.903Z,69.32
2022-08-17T09:28:11.755Z,69.59
2022-08-17T09:29:14.790Z,69.39
2022-08-17T09:30:14.736Z,69.85
2022-08-17T09:31:11.725Z,69.49
2022-08-17T09:32:11.697Z,70.48
2022-08-17T09:33:11.705Z,70.68
2022-08-17T09:34:11.667Z,70.08
2022-08-17T09:35:11.653Z,69.69
2022-08-17T09:36:11.657Z,70.05
2022-08-17T09:37:11.712Z,69.95
2022-08-17T09:38:11.618Z,69.75
2022-08-17T09:39:11.613Z,70.05
2022-08-17T09:40:11.660Z,69.02
2022-08-17T09:41:11.578Z,69.23
2022-08-17T09:42:11.566Z,69.32
2022-08-17T09:43:11.774Z,68.73
2022-08-17T09:44:23.192Z,68.53
2022-08-17T09:45:12.550Z,68.24
2022-08-17T09:46:11.543Z,68.04
2022-08-17T09:47:11.535Z,68.13
2022-08-17T09:48:11.486Z,68.30
2022-08-17T09:49:14.771Z,68.60
2022-08-17T09:50:14.491Z,68.57
2022-08-17T09:51:11.454Z,66.52
2022-08-17T09:52:11.439Z,66.72
2022-08-17T09:53:11.429Z,66.62
2022-08-17T09:54:37.454Z,66.42
2022-08-17T09:55:12.440Z,66.42
2022-08-17T09:56:11.399Z,66.55
2022-08-17T09:57:29.082Z,66.95
2022-08-17T09:58:15.043Z,66.95
2022-08-17T09:59:11.363Z,67.54
2022-08-17T10:00:11.362Z,67.54
2022-08-17T10:01:11.358Z,67.64
2022-08-17T10:02:13.595Z,66.85
2022-08-17T10:03:11.292Z,65.17
2022-08-17T10:04:11.435Z,65.14
2022-08-17T10:05:11.263Z,65.04
2022-08-17T10:06:11.274Z,64.94
2022-08-17T10:07:12.288Z,65.30
2022-08-17T10:08:11.237Z,64.81
2022-08-17T10:09:14.286Z,64.78
2022-08-17T10:10:14.559Z,64.48
2022-08-17T10:11:11.219Z,64.28
2022-08-17T10:12:11.205Z,62.90
2022-08-17T10:13:11.159Z,63.20
2022-08-17T10:14:37.583Z,63.79
2022-08-17T10:15:12.198Z,63.49
2022-08-17T10:16:11.129Z,63.49
2022-08-17T10:17:11.110Z,63.79
2022-08-17T10:18:11.224Z,63.79
2022-08-17T10:19:11.208Z,63.86
2022-08-17T10:20:11.225Z,63.24
2022-08-17T10:21:11.076Z,63.08
2022-08-17T10:22:35.090Z,61.80
2022-08-17T10:23:12.013Z,61.37
2022-08-17T10:24:11.004Z,59.89
2022-08-17T10:25:22.501Z,58.91
2022-08-17T10:26:12.011Z,58.29
2022-08-17T10:27:11.053Z,57.97
2022-08-17T10:28:20.144Z,57.25
2022-08-17T10:29:14.938Z,57.05
2022-08-17T10:30:14.055Z,57.64
2022-08-17T10:31:33.870Z,57.28
2022-08-17T10:32:11.958Z,57.57
2022-08-17T10:33:10.886Z,57.77
2022-08-17T10:34:10.894Z,57.57
2022-08-17T10:35:10.849Z,57.90
2022-08-17T10:36:11.005Z,56.81
2022-08-17T10:37:10.844Z,57.23
2022-08-17T10:38:10.840Z,57.43
2022-08-17T10:39:10.800Z,57.56
2022-08-17T10:40:10.829Z,58.05
2022-08-17T10:41:10.813Z,57.53
2022-08-17T10:42:10.762Z,57.23
2022-08-17T10:43:10.790Z,57.43
2022-08-17T10:44:37.131Z,56.91
2022-08-17T10:45:11.722Z,56.62
2022-08-17T10:46:30.928Z,55.70
2022-08-17T10:47:11.800Z,56.16
2022-08-17T10:48:10.954Z,55.06
2022-08-17T10:49:13.667Z,54.39
2022-08-17T10:50:13.669Z,54.99
2022-08-17T10:51:11.411Z,54.30
2022-08-17T10:52:10.650Z,53.12
2022-08-17T10:53:10.640Z,53.51
2022-08-17T10:54:10.610Z,54.57
2022-08-17T10:55:10.651Z,53.49
2022-08-17T10:56:10.602Z,54.76
2022-08-17T10:57:10.561Z,54.96
2022-08-17T10:58:10.554Z,54.86
2022-08-17T10:59:10.551Z,53.06
2022-08-17T11:00:10.523Z,51.79
2022-08-17T11:01:11.716Z,51.91
2022-08-17T11:02:10.503Z,52.01
2022-08-17T11:03:10.486Z,52.03
2022-08-17T11:04:10.483Z,52.03
2022-08-17T11:05:10.465Z,51.91
2022-08-17T11:06:12.417Z,51.20
2022-08-17T11:07:10.487Z,51.20
2022-08-17T11:08:10.418Z,51.89
2022-08-17T11:09:13.437Z,51.10
2022-08-17T11:10:13.424Z,51.91
2022-08-17T11:11:11.360Z,50.71
2022-08-17T11:12:10.381Z,51.12
2022-08-17T11:13:10.442Z,51.42
2022-08-17T11:14:10.349Z,51.72
2022-08-17T11:15:10.340Z,51.20
2022-08-17T11:16:11.297Z,50.90
2022-08-17T11:17:10.312Z,50.44
2022-08-17T11:18:10.293Z,50.16
2022-08-17T11:19:10.313Z,50.88
2022-08-17T11:20:10.277Z,51.28
2022-08-17T11:21:11.745Z,51.40
2022-08-17T11:22:10.254Z,51.81
2022-08-17T11:23:10.236Z,52.11
2022-08-17T11:24:10.237Z,52.11
2022-08-17T11:25:10.266Z,51.92
2022-08-17T11:26:10.948Z,52.11
2022-08-17T11:27:12.143Z,51.92
2022-08-17T11:28:10.167Z,51.92
2022-08-17T11:29:13.170Z,52.48
2022-08-17T11:30:13.209Z,51.89
2022-08-17T11:31:10.893Z,52.38
2022-08-17T11:32:11.119Z,51.67
2022-08-17T11:33:10.161Z,51.18
2022-08-17T11:34:10.118Z,51.00
2022-08-17T11:35:10.074Z,51.69
2022-08-17T11:36:10.833Z,51.40
2022-08-17T11:37:10.154Z,51.72
2022-08-17T11:38:14.027Z,51.81
2022-08-17T11:39:11.787Z,52.01
2022-08-17T11:40:10.096Z,51.62
2022-08-17T11:41:10.769Z,52.01
2022-08-17T11:42:10.037Z,52.40
2022-08-17T11:43:09.976Z,52.38
2022-08-17T11:44:09.957Z,52.87
2022-08-17T11:45:09.989Z,53.36
2022-08-17T11:46:10.691Z,53.07
2022-08-17T11:47:09.952Z,53.07
2022-08-17T11:48:27.131Z,52.48
2022-08-17T11:49:13.892Z,53.27
2022-08-17T11:50:12.920Z,54.33
2022-08-17T11:51:09.943Z,51.20
2022-08-17T11:52:09.852Z,51.89
2022-08-17T11:53:09.850Z,52.38
2022-08-17T11:54:31.797Z,51.69
2022-08-17T11:55:34.011Z,51.69
2022-08-17T11:56:11.553Z,52.16
2022-08-17T11:57:09.807Z,50.98
2022-08-17T11:58:09.764Z,50.90
2022-08-17T11:59:09.754Z,50.51
2022-08-17T12:00:09.749Z,51.18
2022-08-17T12:01:09.737Z,51.20
2022-08-17T12:02:09.781Z,51.79
2022-08-17T12:03:09.715Z,51.79
2022-08-17T12:04:09.727Z,52.38
2022-08-17T12:05:09.741Z,51.69
2022-08-17T12:06:10.397Z,51.30
2022-08-17T12:07:09.642Z,51.69
2022-08-17T12:08:09.682Z,51.79
2022-08-17T12:09:12.631Z,52.38
2022-08-17T12:10:12.630Z,53.36
2022-08-17T12:11:09.592Z,53.30
2022-08-17T12:12:14.907Z,53.00
2022-08-17T12:13:10.608Z,53.19
2022-08-17T12:14:13.749Z,52.21
2022-08-17T12:15:12.005Z,53.30
2022-08-17T12:16:09.554Z,53.59
2022-08-17T12:17:09.515Z,53.39
2022-08-17T12:18:09.507Z,52.80
2022-08-17T12:19:09.486Z,53.76
2022-08-17T12:20:09.474Z,52.48
2022-08-17T12:21:09.497Z,53.36
2022-08-17T12:22:09.476Z,52.68
2022-08-17T12:23:09.431Z,52.97
2022-08-17T12:24:09.429Z,53.47
2022-08-17T12:25:09.410Z,53.05
2022-08-17T12:26:09.456Z,52.65
2022-08-17T12:27:09.381Z,52.16
2022-08-17T12:28:09.922Z,52.65
2022-08-17T12:29:18.283Z,52.82
2022-08-17T12:30:13.356Z,53.70
2022-08-17T12:31:09.323Z,53.02
2022-08-17T12:32:09.413Z,52.53
2022-08-17T12:33:09.306Z,52.14
2022-08-17T12:34:09.286Z,52.03
2022-08-17T12:35:09.274Z,52.92
2022-08-17T12:36:09.255Z,53.31
2022-08-17T12:37:09.260Z,52.72
2022-08-17T12:38:32.805Z,51.05
2022-08-17T12:39:13.878Z,50.98
2022-08-17T12:40:09.244Z,52.36
2022-08-17T12:41:09.194Z,54.43
2022-08-17T12:42:09.180Z,54.82
2022-08-17T12:43:09.167Z,55.33
2022-08-17T12:44:09.222Z,55.63
2022-08-17T12:45:09.143Z,56.84
2022-08-17T12:46:14.964Z,57.36
2022-08-17T12:47:10.121Z,57.88
2022-08-17T12:48:09.102Z,59.00
2022-08-17T12:49:12.142Z,59.19
2022-08-17T12:50:29.087Z,60.11
2022-08-17T12:51:10.063Z,60.90
2022-08-17T12:52:09.112Z,60.80